Time;durP1;ratioP1;P1;durP2;ratioP2;P2;SDS_P1;SDS_P2;PMS_P1;PMS_P2;Temp;Humidity;BMP_temperature;BMP_pressure;BME280_temperature;BME280_humidity;BME280_pressure;Samples;Min_cycle;Max_cycle;Signal;HPM_P1;HPM_P2
2023/06/05 00:01:43;;;;;;;7.00;3.97;;;;;;;14.13;79.16;102148.16;5032020;28;20018;-68
2023/06/05 00:04:09;;;;;;;6.57;3.70;;;;;;;14.03;79.58;102150.06;5032864;28;20524;-68
2023/06/05 00:06:34;;;;;;;7.80;3.92;;;;;;;13.96;80.10;102142.31;5033190;28;20022;-68
2023/06/05 00:09:00;;;;;;;7.28;3.70;;;;;;;13.89;79.08;102144.16;5031927;28;20079;-68
2023/06/05 00:11:26;;;;;;;7.55;3.97;;;;;;;13.98;80.26;102151.03;5032912;28;20037;-68
2023/06/05 00:13:52;;;;;;;7.90;4.10;;;;;;;13.90;80.59;102153.78;5032957;28;20109;-68
2023/06/05 00:16:17;;;;;;;8.35;3.90;;;;;;;13.81;81.05;102160.03;5031920;28;20152;-68
2023/06/05 00:18:43;;;;;;;5.80;3.70;;;;;;;13.77;81.32;102158.34;5032800;28;20037;-69
2023/06/05 00:21:09;;;;;;;7.78;4.72;;;;;;;13.78;82.75;102159.22;5032693;28;20040;-68
2023/06/05 00:23:35;;;;;;;5.25;3.85;;;;;;;13.74;81.34;102154.91;5031890;28;20029;-68
2023/06/05 00:26:00;;;;;;;6.68;3.78;;;;;;;13.70;82.12;102154.09;5032312;28;20041;-69
2023/06/05 00:28:25;;;;;;;8.38;4.57;;;;;;;13.68;81.53;102153.25;5032303;28;20039;-69
2023/06/05 00:30:51;;;;;;;6.10;3.78;;;;;;;13.65;82.96;102145.44;5031775;28;20481;-68
2023/06/05 00:33:16;;;;;;;7.22;4.00;;;;;;;13.59;82.62;102146.38;5032138;28;20029;-68
2023/06/05 00:35:42;;;;;;;5.65;4.00;;;;;;;13.64;82.43;102148.97;5032225;28;20022;-68
2023/06/05 00:38:08;;;;;;;8.10;4.30;;;;;;;13.56;83.38;102141.19;5032116;28;20026;-68
2023/06/05 00:40:33;;;;;;;11.15;4.10;;;;;;;13.46;83.17;102149.22;5032357;28;20035;-68
2023/06/05 00:42:58;;;;;;;5.53;3.92;;;;;;;13.49;84.05;102144.81;5023601;28;20030;-68
2023/06/05 00:45:24;;;;;;;6.88;4.20;;;;;;;13.48;82.58;102150.06;5031605;28;20469;-68
2023/06/05 00:47:49;;;;;;;6.82;4.30;;;;;;;13.46;83.30;102147.47;5032244;28;20049;-68
2023/06/05 00:50:15;;;;;;;9.57;4.65;;;;;;;13.39;83.70;102144.97;5037843;28;20044;-68
2023/06/05 00:52:42;;;;;;;7.90;4.72;;;;;;;13.27;84.34;102149.47;5030086;28;20025;-68
2023/06/05 00:55:08;;;;;;;8.18;4.10;;;;;;;13.24;85.07;102149.53;5030818;28;20072;-68
2023/06/05 00:57:34;;;;;;;7.57;4.10;;;;;;;13.20;84.50;102155.66;5030476;28;20481;-68
2023/06/05 01:00:01;;;;;;;7.97;4.22;;;;;;;13.12;85.43;102145.28;5024600;28;20500;-68
2023/06/05 01:02:28;;;;;;;8.20;4.90;;;;;;;12.94;85.81;102127.19;5028494;28;20025;-68
2023/06/05 01:04:56;;;;;;;7.70;4.30;;;;;;;13.02;85.93;102148.06;5031230;28;20108;-68
2023/06/05 01:07:22;;;;;;;7.53;4.38;;;;;;;13.07;85.71;102141.00;5032243;28;20076;-68
2023/06/05 01:09:47;;;;;;;7.63;4.10;;;;;;;13.09;85.76;102154.94;5030851;28;20492;-68
2023/06/05 01:12:51;;;;;;;5.70;4.28;;;;;;;13.09;84.49;102152.31;5031164;28;20561;-68
2023/06/05 01:15:18;;;;;;;8.93;4.80;;;;;;;12.98;85.84;102146.34;5009418;28;20053;-68
2023/06/05 01:17:47;;;;;;;5.60;4.05;;;;;;;12.92;86.28;102135.97;5030901;28;20056;-68
2023/06/05 01:20:13;;;;;;;6.57;4.10;;;;;;;12.83;86.97;102137.81;5031367;28;20044;-68
2023/06/05 01:22:38;;;;;;;8.60;4.50;;;;;;;12.82;87.68;102141.31;5031803;28;20022;-68
2023/06/05 01:25:07;;;;;;;7.22;4.43;;;;;;;12.82;87.62;102143.06;5032087;28;20112;-68
2023/06/05 01:27:58;;;;;;;6.75;4.75;;;;;;;12.77;88.04;102142.25;5031626;28;20112;-68
2023/06/05 01:30:30;;;;;;;9.30;5.10;;;;;;;12.73;88.29;102140.56;5029023;28;20109;-68
2023/06/05 01:33:02;;;;;;;6.93;4.72;;;;;;;12.62;88.85;102140.66;5030917;28;20710;-68
2023/06/05 01:35:32;;;;;;;6.78;4.45;;;;;;;12.62;89.06;102143.28;5031472;28;20021;-68
2023/06/05 01:37:59;;;;;;;8.02;5.03;;;;;;;12.55;89.42;102146.84;5029870;28;20063;-68
2023/06/05 01:40:26;;;;;;;6.53;4.55;;;;;;;12.53;89.16;102141.66;5031357;28;20158;-68
2023/06/05 01:42:53;;;;;;;7.97;5.15;;;;;;;12.52;89.50;102146.88;5031718;28;20029;-68
2023/06/05 01:45:19;;;;;;;7.63;4.53;;;;;;;12.53;89.75;102139.03;5031941;28;20040;-68
2023/06/05 01:47:48;;;;;;;7.43;4.70;;;;;;;12.52;90.34;102136.41;5030884;28;20029;-68
2023/06/05 01:50:14;;;;;;;6.20;5.10;;;;;;;12.45;90.37;102137.38;5031650;28;20107;-68
2023/06/05 01:52:41;;;;;;;6.53;5.07;;;;;;;12.39;90.14;102126.09;5031516;28;20482;-68
2023/06/05 01:55:14;;;;;;;7.63;5.20;;;;;;;12.38;90.74;102137.44;5030924;28;20045;-68
2023/06/05 01:57:41;;;;;;;11.70;4.95;;;;;;;12.32;91.27;102131.41;5031714;28;20022;-68
2023/06/05 02:00:11;;;;;;;8.55;5.45;;;;;;;12.24;92.22;102123.63;5031613;28;20121;-68
2023/06/05 02:02:36;;;;;;;6.95;5.10;;;;;;;12.18;93.03;102121.09;5031468;28;20026;-68
2023/06/05 02:05:02;;;;;;;6.88;4.97;;;;;;;12.15;92.61;102121.13;5031590;28;20024;-68
2023/06/05 02:07:28;;;;;;;9.20;5.10;;;;;;;12.12;92.35;102111.53;5031548;28;20036;-69
2023/06/05 02:09:53;;;;;;;7.07;4.78;;;;;;;12.16;92.43;102122.84;5029484;28;20508;-68
2023/06/05 02:12:19;;;;;;;6.80;5.03;;;;;;;12.16;92.83;102120.22;5028458;28;20385;-68
2023/06/05 02:14:44;;;;;;;9.32;5.03;;;;;;;12.14;92.62;102120.25;5030708;28;20027;-68
2023/06/05 02:17:13;;;;;;;7.85;4.97;;;;;;;12.09;93.01;102108.09;5031446;28;20037;-68
2023/06/05 02:19:41;;;;;;;9.18;5.00;;;;;;;12.04;93.67;102117.75;5029572;28;20030;-68
2023/06/05 02:22:06;;;;;;;6.15;5.25;;;;;;;11.98;93.97;102117.78;5034485;28;20108;-68
2023/06/05 02:24:32;;;;;;;7.97;5.40;;;;;;;11.93;94.47;102123.94;5034831;28;20126;-68
2023/06/05 02:26:57;;;;;;;7.15;5.63;;;;;;;11.94;94.93;102117.81;5032537;28;20037;-68
2023/06/05 02:29:23;;;;;;;8.00;5.70;;;;;;;11.89;94.64;102116.97;5033715;28;20041;-68
2023/06/05 02:31:48;;;;;;;9.32;5.50;;;;;;;11.84;94.59;102115.28;5032719;28;20030;-68
2023/06/05 02:34:14;;;;;;;8.48;6.13;;;;;;;11.81;94.56;102116.16;5030992;28;20029;-68
2023/06/05 02:36:40;;;;;;;8.57;5.90;;;;;;;11.79;95.04;102114.44;5033731;28;20025;-68
2023/06/05 02:39:06;;;;;;;8.30;6.07;;;;;;;11.69;95.79;102111.03;5034845;28;20029;-68
2023/06/05 02:41:31;;;;;;;8.65;6.10;;;;;;;11.67;96.20;102107.56;5034544;28;20025;-68
2023/06/05 02:43:56;;;;;;;10.65;6.47;;;;;;;11.59;96.12;102104.16;5033561;28;20392;-68
2023/06/05 02:46:24;;;;;;;12.18;6.47;;;;;;;11.59;95.99;102104.16;5034780;28;20025;-68
2023/06/05 02:48:50;;;;;;;11.82;7.30;;;;;;;11.52;96.49;102097.25;5034088;28;20112;-68
2023/06/05 02:51:15;;;;;;;8.60;6.53;;;;;;;11.52;96.79;102102.47;5033841;28;20116;-67
2023/06/05 02:53:40;;;;;;;11.30;6.38;;;;;;;11.52;96.71;102090.28;5034392;28;20100;-68
2023/06/05 02:56:06;;;;;;;8.23;6.18;;;;;;;11.53;97.21;102105.06;5034284;28;20116;-68
2023/06/05 02:58:33;;;;;;;9.80;5.80;;;;;;;11.58;97.07;102107.66;5033877;28;20377;-67
2023/06/05 03:01:02;;;;;;;10.02;6.38;;;;;;;11.51;97.28;102100.72;5034063;28;20034;-68
2023/06/05 03:03:31;;;;;;;9.57;6.38;;;;;;;11.48;97.40;102105.09;5033408;28;20484;-68
2023/06/05 03:06:04;;;;;;;9.95;6.10;;;;;;;11.43;99.15;102099.03;5033669;28;20630;-67
2023/06/05 03:08:34;;;;;;;9.55;6.55;;;;;;;11.41;97.68;102094.69;5035915;28;20114;-68
2023/06/05 03:11:00;;;;;;;8.45;6.53;;;;;;;11.37;98.31;102106.03;5030405;28;20056;-68
2023/06/05 03:13:26;;;;;;;9.02;6.57;;;;;;;11.35;99.27;102098.22;5027668;28;20112;-68
2023/06/05 03:15:56;;;;;;;11.82;6.57;;;;;;;11.37;98.30;102099.06;5033027;28;20021;-68
2023/06/05 03:18:24;;;;;;;10.07;6.75;;;;;;;11.37;98.55;102098.19;5031456;28;20072;-68
2023/06/05 03:20:55;;;;;;;9.80;6.78;;;;;;;11.29;98.76;102100.00;5033871;28;20037;-68
2023/06/05 03:23:22;;;;;;;12.20;6.75;;;;;;;11.24;99.79;102092.19;5034403;28;20041;-68
2023/06/05 03:25:47;;;;;;;8.77;6.40;;;;;;;11.19;99.13;102099.19;5028772;28;20034;-67
2023/06/05 03:28:12;;;;;;;10.20;6.82;;;;;;;11.22;99.50;102097.44;5034095;28;20041;-68
2023/06/05 03:30:38;;;;;;;10.40;6.95;;;;;;;11.15;100.00;102089.63;5033259;28;20105;-68
2023/06/05 03:33:04;;;;;;;10.40;6.60;;;;;;;11.15;100.00;102094.84;5032101;28;20025;-67
2023/06/05 03:35:30;;;;;;;13.80;7.70;;;;;;;11.14;100.00;102090.50;5033228;28;20095;-68
2023/06/05 03:37:55;;;;;;;8.52;6.85;;;;;;;11.10;100.00;102091.41;5033262;28;20469;-68
2023/06/05 03:40:20;;;;;;;14.05;7.55;;;;;;;11.10;100.00;102079.22;5033042;28;20027;-68
2023/06/05 03:42:45;;;;;;;10.95;6.82;;;;;;;11.04;100.00;102078.41;5033101;28;20466;-67
2023/06/05 03:45:13;;;;;;;12.77;7.70;;;;;;;11.06;100.00;102087.09;5033302;28;20033;-68
2023/06/05 03:47:38;;;;;;;12.40;8.15;;;;;;;11.02;100.00;102087.13;5032397;28;20029;-68
2023/06/05 03:50:04;;;;;;;12.43;7.68;;;;;;;10.99;100.00;102086.25;5027307;28;20050;-68
2023/06/05 03:52:30;;;;;;;13.32;7.40;;;;;;;11.01;100.00;102087.97;5035514;28;20773;-68
2023/06/05 03:54:55;;;;;;;9.85;7.82;;;;;;;10.98;100.00;102087.13;5037459;28;20026;-68
2023/06/05 03:57:22;;;;;;;12.10;7.95;;;;;;;10.94;100.00;102088.00;5031578;28;20461;-68
2023/06/05 03:59:48;;;;;;;9.65;7.20;;;;;;;11.02;100.00;102086.25;5029081;28;20029;-68
2023/06/05 04:02:13;;;;;;;10.48;7.38;;;;;;;11.00;100.00;102088.00;5032622;28;20381;-68
2023/06/05 04:04:39;;;;;;;12.70;7.93;;;;;;;10.98;100.00;102080.16;5032328;28;20036;-68
2023/06/05 04:07:06;;;;;;;11.82;8.00;;;;;;;11.10;100.00;102091.41;5028424;28;20060;-68
2023/06/05 04:09:31;;;;;;;12.68;7.72;;;;;;;11.05;100.00;102090.56;5031954;28;20033;-68
2023/06/05 04:11:57;;;;;;;9.50;7.90;;;;;;;11.09;100.00;102090.56;5030893;28;20579;-68
2023/06/05 04:14:23;;;;;;;9.95;7.22;;;;;;;11.14;100.00;102096.59;5032135;28;20030;-68
2023/06/05 04:16:48;;;;;;;10.90;7.75;;;;;;;11.17;100.00;102093.97;5032799;28;20036;-68
2023/06/05 04:19:14;;;;;;;11.60;7.32;;;;;;;11.15;100.00;102092.25;5033032;28;20072;-68
2023/06/05 04:21:40;;;;;;;16.83;8.07;;;;;;;11.14;100.00;102096.59;5031817;28;20036;-68
2023/06/05 04:24:08;;;;;;;10.90;7.38;;;;;;;11.21;100.00;102103.50;5028295;28;20478;-68
2023/06/05 04:26:34;;;;;;;13.15;8.18;;;;;;;11.16;100.00;102101.81;5032812;28;20431;-68
2023/06/05 04:29:02;;;;;;;10.32;7.97;;;;;;;11.22;100.00;102104.41;5031483;28;20599;-68
2023/06/05 04:31:27;;;;;;;13.10;8.35;;;;;;;11.22;100.00;102104.41;5032857;28;20037;-68
2023/06/05 04:33:52;;;;;;;11.77;7.53;;;;;;;11.23;100.00;102108.75;5031909;28;20037;-68
2023/06/05 04:36:18;;;;;;;11.55;8.48;;;;;;;11.11;100.00;102087.91;5031201;28;20033;-68
2023/06/05 04:38:45;;;;;;;10.82;8.40;;;;;;;11.15;100.00;102098.34;5032462;28;20033;-68
2023/06/05 04:41:10;;;;;;;12.38;8.50;;;;;;;11.16;100.00;102100.06;5032397;28;20029;-68
2023/06/05 04:43:36;;;;;;;11.43;8.13;;;;;;;11.22;100.00;102104.41;5031404;28;20405;-68
2023/06/05 04:46:01;;;;;;;11.52;8.90;;;;;;;11.32;100.00;102116.53;5032363;28;20069;-68
2023/06/05 04:48:27;;;;;;;13.10;8.65;;;;;;;11.32;100.00;102110.44;5032035;28;20516;-68
2023/06/05 04:50:53;;;;;;;11.88;8.63;;;;;;;11.37;100.00;102104.28;5031220;28;20679;-68
2023/06/05 04:53:18;;;;;;;13.02;7.97;;;;;;;11.39;100.00;102118.22;5031091;28;20025;-68
2023/06/05 04:55:45;;;;;;;14.52;8.57;;;;;;;11.41;100.00;102103.41;5029961;28;20034;-68
2023/06/05 04:58:11;;;;;;;11.35;8.63;;;;;;;11.46;100.00;102113.81;5027010;28;20136;-68
2023/06/05 05:00:36;;;;;;;11.98;9.02;;;;;;;11.49;99.92;102113.78;5030411;28;20552;-68
2023/06/05 05:03:02;;;;;;;17.48;9.65;;;;;;;11.52;99.39;102115.53;5026503;28;20125;-68
2023/06/05 05:05:27;;;;;;;13.55;8.60;;;;;;;11.57;99.26;102116.34;5029606;28;20075;-68
2023/06/05 05:07:53;;;;;;;13.85;9.05;;;;;;;11.59;99.70;102114.59;5027639;28;20068;-68
2023/06/05 05:10:18;;;;;;;15.90;9.77;;;;;;;11.61;98.80;102111.09;5031095;28;20093;-68
2023/06/05 05:12:43;;;;;;;11.50;8.88;;;;;;;11.69;99.03;102111.03;5030331;28;20037;-68
2023/06/05 05:15:09;;;;;;;15.05;9.73;;;;;;;11.72;98.67;102108.41;5030660;28;20025;-68
2023/06/05 05:17:35;;;;;;;12.90;9.20;;;;;;;11.75;98.80;102100.53;5031203;28;20032;-69
2023/06/05 05:20:03;;;;;;;14.43;9.13;;;;;;;11.78;97.56;102104.88;5028677;28;20080;-68
2023/06/05 05:22:28;;;;;;;14.38;10.05;;;;;;;11.87;97.57;102115.25;5030079;28;20040;-68
2023/06/05 05:24:53;;;;;;;14.82;9.48;;;;;;;11.88;97.08;102106.56;5029796;28;20124;-68
2023/06/05 05:27:19;;;;;;;11.93;8.80;;;;;;;11.89;96.96;102108.28;5031927;28;20527;-68
2023/06/05 05:29:44;;;;;;;17.33;8.95;;;;;;;11.94;96.49;102111.75;5030348;28;20112;-68
2023/06/05 05:32:10;;;;;;;13.05;8.52;;;;;;;12.01;96.42;102107.31;5031111;28;20065;-68
2023/06/05 05:34:35;;;;;;;14.02;9.60;;;;;;;12.06;96.43;102108.97;5031487;28;20049;-68
2023/06/05 05:37:01;;;;;;;21.23;9.93;;;;;;;12.04;95.81;102108.16;5031671;28;20104;-68
2023/06/05 05:39:26;;;;;;;14.35;8.77;;;;;;;12.15;96.38;102108.03;5031220;28;20029;-68
2023/06/05 05:41:51;;;;;;;14.80;9.45;;;;;;;12.23;96.28;102108.84;5028706;28;20072;-68
2023/06/05 05:44:17;;;;;;;16.58;9.32;;;;;;;12.27;95.94;102101.84;5032004;28;20030;-68
2023/06/05 05:46:46;;;;;;;14.10;8.90;;;;;;;12.30;95.41;102107.91;5030915;28;20521;-68
2023/06/05 05:49:11;;;;;;;17.15;9.43;;;;;;;12.24;94.86;102100.09;5031446;28;20034;-68
2023/06/05 05:51:36;;;;;;;13.38;9.88;;;;;;;12.35;94.31;102108.69;5031528;28;20028;-68
2023/06/05 05:54:02;;;;;;;14.48;9.88;;;;;;;12.42;94.66;102114.72;5030948;28;20396;-68
2023/06/05 05:56:27;;;;;;;15.15;10.20;;;;;;;12.45;94.26;102109.47;5035079;28;20385;-68
2023/06/05 05:58:52;;;;;;;14.18;9.48;;;;;;;12.48;93.84;102114.66;5034026;28;20061;-68
2023/06/05 06:01:17;;;;;;;16.52;9.80;;;;;;;12.48;92.89;102111.19;5029609;28;20095;-68
2023/06/05 06:03:43;;;;;;;14.68;9.65;;;;;;;12.46;93.20;102121.69;5035329;28;20034;-68
2023/06/05 06:06:08;;;;;;;18.38;10.45;;;;;;;12.57;93.45;102127.66;5035266;28;20026;-68
2023/06/05 06:08:37;;;;;;;14.55;10.07;;;;;;;12.63;92.71;102124.97;5034843;28;20037;-68
2023/06/05 06:11:06;;;;;;;13.77;9.75;;;;;;;12.72;91.44;102126.63;5035276;28;20064;-68
2023/06/05 06:13:33;;;;;;;15.68;10.38;;;;;;;12.79;91.17;102125.66;5034934;28;20078;-68
2023/06/05 06:15:58;;;;;;;16.33;10.02;;;;;;;12.81;91.22;102123.84;5034639;28;20033;-68
2023/06/05 06:18:23;;;;;;;13.70;10.40;;;;;;;12.86;91.10;102129.06;5030825;28;20558;-68
2023/06/05 06:20:48;;;;;;;16.20;9.73;;;;;;;12.86;90.14;102127.31;5034794;28;20042;-68
2023/06/05 06:23:14;;;;;;;19.38;10.60;;;;;;;12.78;90.12;102115.19;5034655;28;20053;-68
2023/06/05 06:25:39;;;;;;;16.60;10.40;;;;;;;12.99;90.58;102129.78;5034481;28;20083;-68
2023/06/05 06:28:05;;;;;;;14.35;9.40;;;;;;;13.05;89.79;102122.69;5034353;28;20036;-68
2023/06/05 06:30:31;;;;;;;16.80;9.68;;;;;;;13.10;88.57;102120.00;5034795;28;20033;-68
2023/06/05 06:33:00;;;;;;;15.18;9.07;;;;;;;13.15;89.20;102128.69;5034851;28;20381;-68
2023/06/05 06:35:26;;;;;;;14.38;9.95;;;;;;;13.18;88.16;102133.88;5030435;28;20466;-68
2023/06/05 06:37:54;;;;;;;13.32;9.25;;;;;;;13.21;88.52;102131.22;5034449;28;20029;-68
2023/06/05 06:40:20;;;;;;;14.80;9.27;;;;;;;13.16;87.44;102116.44;5034744;28;20473;-68
2023/06/05 06:42:46;;;;;;;15.13;10.38;;;;;;;13.33;88.20;102128.44;5033290;28;20041;-68
2023/06/05 06:45:11;;;;;;;15.43;10.43;;;;;;;13.39;87.59;102126.63;5034925;28;20099;-68
2023/06/05 06:47:36;;;;;;;15.88;9.77;;;;;;;13.46;87.45;102125.63;5034628;28;20030;-68
2023/06/05 06:50:02;;;;;;;16.45;9.80;;;;;;;13.56;87.25;102122.84;5033394;28;20506;-68
2023/06/05 06:52:27;;;;;;;14.35;10.45;;;;;;;13.66;87.12;102131.44;5034703;28;20025;-68
2023/06/05 06:54:52;;;;;;;19.17;10.65;;;;;;;13.72;85.30;102136.59;5029154;28;20365;-68
2023/06/05 06:57:18;;;;;;;16.17;10.00;;;;;;;13.76;85.38;102127.78;5033887;28;20025;-68
2023/06/05 06:59:44;;;;;;;15.20;9.55;;;;;;;13.81;84.62;102136.44;5027754;28;20100;-68
2023/06/05 07:02:13;;;;;;;13.45;9.20;;;;;;;13.92;85.64;102138.00;5033967;28;20504;-68
2023/06/05 07:04:41;;;;;;;16.70;10.43;;;;;;;13.93;83.61;102144.97;5033378;28;20520;-68
2023/06/05 07:07:09;;;;;;;15.73;9.77;;;;;;;13.97;84.38;102141.44;5031521;28;20033;-68
2023/06/05 07:09:34;;;;;;;14.20;10.07;;;;;;;14.09;85.04;102138.59;5034023;28;20079;-68
2023/06/05 07:12:04;;;;;;;16.30;10.43;;;;;;;14.18;82.58;102143.66;5033496;28;20049;-68
2023/06/05 07:14:30;;;;;;;12.57;9.40;;;;;;;14.21;81.87;102145.38;5025125;28;20503;-68
2023/06/05 07:16:56;;;;;;;18.95;10.25;;;;;;;14.29;83.58;102144.38;5033506;28;20033;-68
2023/06/05 07:19:21;;;;;;;17.42;10.35;;;;;;;14.34;82.49;102146.88;5033415;28;20523;-70
2023/06/05 07:21:47;;;;;;;14.60;10.50;;;;;;;14.49;83.00;102153.63;5033671;28;20033;-69
2023/06/05 07:24:12;;;;;;;17.08;9.70;;;;;;;14.57;82.50;102148.25;5034544;28;20120;-70
2023/06/05 07:26:37;;;;;;;13.68;9.95;;;;;;;14.70;81.73;102149.75;5033161;28;20470;-69
2023/06/05 07:29:03;;;;;;;14.00;9.98;;;;;;;14.78;80.94;102141.69;5033940;28;20018;-70
2023/06/05 07:31:30;;;;;;;16.33;9.95;;;;;;;14.79;79.39;102132.94;5036195;28;20061;-69
2023/06/05 07:33:55;;;;;;;16.80;10.45;;;;;;;14.82;79.81;102139.00;5031900;28;20354;-70
2023/06/05 07:36:22;;;;;;;16.58;10.85;;;;;;;14.96;80.59;102147.44;5030796;28;20056;-69
2023/06/05 07:38:48;;;;;;;15.55;10.15;;;;;;;15.07;79.18;102147.22;5030119;28;20037;-69
2023/06/05 07:41:13;;;;;;;15.50;9.48;;;;;;;15.10;77.47;102148.91;5033663;28;20017;-70
2023/06/05 07:43:42;;;;;;;14.15;10.52;;;;;;;15.13;78.36;102143.59;5031927;28;20044;-70
2023/06/05 07:46:08;;;;;;;15.18;9.90;;;;;;;15.20;77.35;102145.19;5032974;28;20029;-70
2023/06/05 07:48:35;;;;;;;17.50;9.77;;;;;;;15.27;79.26;102153.78;5030095;28;20109;-69
2023/06/05 07:51:00;;;;;;;16.13;9.52;;;;;;;15.30;76.67;102156.34;5031125;28;20123;-69
2023/06/05 07:53:25;;;;;;;13.77;9.25;;;;;;;15.31;76.37;102150.22;5031537;28;20104;-69
2023/06/05 07:55:51;;;;;;;14.73;9.80;;;;;;;15.42;76.34;102148.19;5032261;28;20030;-69
2023/06/05 07:58:17;;;;;;;14.70;10.10;;;;;;;15.52;77.42;102136.56;5032988;28;20029;-69
2023/06/05 08:00:47;;;;;;;16.17;9.60;;;;;;;15.60;77.05;102137.28;5031695;28;20040;-70
2023/06/05 08:03:19;;;;;;;16.77;10.27;;;;;;;15.68;75.27;102127.44;5032950;28;20032;-70
2023/06/05 08:05:45;;;;;;;17.73;9.70;;;;;;;15.84;75.76;102148.97;5032890;28;20030;-69
2023/06/05 08:08:10;;;;;;;15.05;9.40;;;;;;;15.88;73.52;102134.84;5035796;28;20079;-69
2023/06/05 08:10:36;;;;;;;13.32;9.65;;;;;;;15.95;73.47;102140.81;5029465;28;20056;-69
2023/06/05 08:13:01;;;;;;;16.25;10.45;;;;;;;16.01;72.59;102148.56;5026964;28;20036;-69
2023/06/05 08:15:26;;;;;;;15.48;9.40;;;;;;;16.11;73.60;102136.88;5032503;28;20362;-70
2023/06/05 08:17:52;;;;;;;13.40;9.27;;;;;;;16.22;71.44;102134.00;5032293;28;20084;-69
2023/06/05 08:20:18;;;;;;;18.30;8.90;;;;;;;16.31;72.31;102139.00;5031524;28;20489;-69
2023/06/05 08:22:43;;;;;;;11.23;8.32;;;;;;;16.43;72.81;102136.94;5032317;28;20112;-70
2023/06/05 08:25:08;;;;;;;15.40;10.40;;;;;;;16.49;72.11;102137.66;5033030;28;20124;-70
2023/06/05 08:27:34;;;;;;;15.35;9.05;;;;;;;16.60;72.36;102130.28;5032454;28;20026;-69
2023/06/05 08:29:59;;;;;;;11.88;8.40;;;;;;;16.69;70.34;102131.81;5038510;28;20454;-70
2023/06/05 08:32:24;;;;;;;16.17;8.57;;;;;;;16.76;69.92;102125.50;5022505;28;20029;-69
2023/06/05 08:34:50;;;;;;;15.32;8.63;;;;;;;16.76;69.60;102104.44;5028327;28;20489;-71
2023/06/05 08:37:16;;;;;;;14.32;8.50;;;;;;;17.04;70.15;102120.28;5025866;28;20029;-69
2023/06/05 08:39:41;;;;;;;16.13;9.02;;;;;;;17.07;66.13;102117.56;5032015;28;20024;-70
2023/06/05 08:42:08;;;;;;;13.75;8.77;;;;;;;17.18;68.35;102116.38;5029954;28;20343;-69
2023/06/05 08:44:33;;;;;;;11.13;8.57;;;;;;;17.37;69.16;102106.97;5032492;28;20026;-70
2023/06/05 08:47:03;;;;;;;15.65;8.23;;;;;;;17.53;67.05;102110.84;5031902;28;20021;-71
2023/06/05 08:49:29;;;;;;;14.55;9.18;;;;;;;17.52;65.16;102095.91;5030729;28;20526;-70
2023/06/05 08:52:06;;;;;;;14.98;9.20;;;;;;;17.65;64.72;102103.44;5031701;28;20484;-70
2023/06/05 08:54:36;;;;;;;12.77;8.60;;;;;;;17.71;66.23;102108.50;5031461;28;20423;-69
2023/06/05 08:57:04;;;;;;;13.68;9.10;;;;;;;17.74;63.54;102105.78;5028705;28;20544;-69
2023/06/05 08:59:29;;;;;;;16.60;9.15;;;;;;;17.87;62.96;102107.13;5034889;28;20504;-69
2023/06/05 09:01:56;;;;;;;12.43;8.80;;;;;;;17.96;63.89;102106.81;5033035;28;20030;-69
2023/06/05 09:04:21;;;;;;;14.80;8.25;;;;;;;18.08;62.81;102099.38;5024189;28;20029;-69
2023/06/05 09:06:47;;;;;;;12.60;8.25;;;;;;;18.13;63.06;102105.34;5029977;28;20032;-69
2023/06/05 09:09:15;;;;;;;13.93;8.32;;;;;;;18.14;60.93;102113.22;5029904;28;20022;-69
2023/06/05 09:11:40;;;;;;;16.60;8.43;;;;;;;18.27;62.71;102112.78;5030095;28;20033;-69
2023/06/05 09:14:06;;;;;;;13.82;8.65;;;;;;;18.31;60.64;102111.75;5032384;28;20063;-69
2023/06/05 09:16:40;;;;;;;15.18;8.65;;;;;;;18.44;62.60;102110.38;5031858;28;20037;-69
2023/06/05 09:19:06;;;;;;;13.95;8.00;;;;;;;18.58;59.96;102109.91;5031935;28;20025;-69
2023/06/05 09:21:32;;;;;;;13.90;8.10;;;;;;;18.75;59.26;102099.59;5032022;28;21253;-69
2023/06/05 09:24:17;;;;;;;15.73;8.60;;;;;;;18.87;59.28;102091.22;5031094;28;20076;-69
2023/06/05 09:27:06;;;;;;;11.20;8.07;;;;;;;18.95;60.01;102099.69;5022035;28;20026;-69
2023/06/05 09:29:39;;;;;;;13.45;7.93;;;;;;;19.09;58.86;102096.50;5028254;28;20397;-69
2023/06/05 09:32:23;;;;;;;19.05;8.00;;;;;;;19.25;58.56;102098.56;5033871;28;20033;-69
2023/06/05 09:35:00;;;;;;;16.60;7.50;;;;;;;19.33;59.24;102089.41;5028918;28;20025;-69
2023/06/05 09:37:35;;;;;;;12.10;7.43;;;;;;;19.35;58.12;102100.75;5035844;28;20016;-69
2023/06/05 09:40:00;;;;;;;14.52;8.05;;;;;;;19.47;59.02;102083.53;5035093;28;20056;-69
2023/06/05 09:42:32;;;;;;;12.85;7.38;;;;;;;19.73;58.88;102089.56;5034700;28;20029;-69
2023/06/05 09:44:59;;;;;;;13.77;7.13;;;;;;;19.86;54.51;102086.34;5034630;28;20112;-69
2023/06/05 09:47:25;;;;;;;14.30;7.47;;;;;;;19.91;54.59;102087.91;5035942;28;20035;-69
2023/06/05 09:49:50;;;;;;;10.05;7.80;;;;;;;19.87;53.99;102089.84;5034182;28;20497;-69
2023/06/05 09:52:15;;;;;;;13.30;7.47;;;;;;;20.01;56.53;102087.47;5031763;28;20025;-69
2023/06/05 09:54:44;;;;;;;16.00;7.80;;;;;;;20.08;53.53;102090.72;5039159;28;20441;-69
2023/06/05 09:57:11;;;;;;;11.02;7.60;;;;;;;20.15;54.45;102089.53;5035612;28;20025;-69
2023/06/05 09:59:50;;;;;;;11.38;7.50;;;;;;;20.22;55.09;102088.31;5036062;28;20033;-69
2023/06/05 10:02:16;;;;;;;9.90;7.45;;;;;;;20.30;55.00;102083.53;5025235;28;20487;-70
2023/06/05 10:05:00;;;;;;;9.85;7.43;;;;;;;20.45;53.93;102076.69;5033094;28;20115;-69
2023/06/05 10:07:27;;;;;;;12.15;7.20;;;;;;;20.44;52.52;102079.44;5031317;28;20021;-69
2023/06/05 10:09:53;;;;;;;12.25;6.60;;;;;;;20.49;52.18;102072.97;5034554;28;20038;-70
2023/06/05 10:12:19;;;;;;;12.07;5.95;;;;;;;20.57;53.32;102083.25;5030602;28;20034;-69
2023/06/05 10:14:46;;;;;;;10.88;6.93;;;;;;;20.58;50.74;102075.22;5037377;28;21042;-70
2023/06/05 10:17:13;;;;;;;11.10;6.57;;;;;;;20.74;51.96;102079.84;5036588;28;20022;-69
2023/06/05 10:19:42;;;;;;;12.63;6.90;;;;;;;20.75;51.04;102069.16;5029102;28;20029;-70
2023/06/05 10:22:13;;;;;;;12.50;6.32;;;;;;;20.80;50.59;102069.81;5033234;28;20051;-69
2023/06/05 10:24:48;;;;;;;9.50;6.53;;;;;;;20.84;53.05;102070.53;5040562;28;20033;-69
2023/06/05 10:27:40;;;;;;;9.95;7.07;;;;;;;20.97;51.20;102070.81;5030425;28;20451;-69
2023/06/05 10:30:35;;;;;;;9.48;6.38;;;;;;;21.03;49.38;102059.91;5031442;28;20033;-70
2023/06/05 10:33:21;;;;;;;10.23;6.63;;;;;;;21.03;50.99;102070.50;5022382;28;20057;-70
2023/06/05 10:35:55;;;;;;;10.32;6.70;;;;;;;21.17;50.20;102059.22;5033563;28;20033;-69
2023/06/05 10:38:23;;;;;;;8.00;6.47;;;;;;;21.37;50.91;102063.59;5035128;28;20032;-70
2023/06/05 10:40:53;;;;;;;16.48;7.82;;;;;;;21.41;49.68;102066.00;5032333;28;20064;-70
2023/06/05 10:43:51;;;;;;;11.68;7.18;;;;;;;21.63;50.83;102059.63;5037845;28;20028;-70
2023/06/05 10:46:36;;;;;;;11.10;6.88;;;;;;;21.73;50.02;102061.72;5029887;28;20033;-69
2023/06/05 10:49:07;;;;;;;12.30;7.22;;;;;;;21.75;49.61;102064.31;5033656;28;20077;-71
2023/06/05 10:51:47;;;;;;;9.30;6.15;;;;;;;22.00;49.19;102063.88;5035805;28;20030;-70
2023/06/05 10:54:16;;;;;;;13.13;7.47;;;;;;;22.00;49.45;102061.22;5026914;28;20025;-70
2023/06/05 10:56:58;;;;;;;8.27;5.88;;;;;;;22.20;48.64;102063.75;5031696;28;20030;-70
2023/06/05 10:59:31;;;;;;;10.13;6.25;;;;;;;22.38;48.87;102042.44;5025117;28;20030;-69
2023/06/05 11:02:05;;;;;;;11.37;6.47;;;;;;;22.58;46.94;102044.88;5035419;28;20026;-69
2023/06/05 11:04:42;;;;;;;11.60;5.57;;;;;;;22.75;48.27;102051.06;5028801;28;20038;-70
2023/06/05 11:07:29;;;;;;;8.93;6.05;;;;;;;22.88;46.43;102041.44;5029090;28;20036;-70
2023/06/05 11:10:31;;;;;;;9.93;5.50;;;;;;;22.88;47.00;102050.28;5032165;28;20052;-70
2023/06/05 11:12:57;;;;;;;9.38;6.07;;;;;;;22.95;44.40;102042.00;5029087;28;20469;-70
2023/06/05 11:15:23;;;;;;;10.05;5.82;;;;;;;23.04;46.83;102038.81;5038466;28;20053;-70
2023/06/05 11:17:48;;;;;;;8.33;5.40;;;;;;;23.12;45.52;102029.47;5033252;28;20076;-69
2023/06/05 11:20:23;;;;;;;9.32;5.78;;;;;;;23.27;45.42;102032.16;5033034;28;20116;-69